Time;durP1;ratioP1;P1;durP2;ratioP2;P2;SDS_P1;SDS_P2;PMS_P1;PMS_P2;Temp;Humidity;BMP_temperature;BMP_pressure;BME280_temperature;BME280_humidity;BME280_pressure;Samples;Min_cycle;Max_cycle;Signal;HPM_P1;HPM_P2
2021/03/28 00:00:27;;;;;;;15.07;3.73;;;;;;;8.40;59.46;101951.81;5117476;28;20560;-54
2021/03/28 00:02:56;;;;;;;17.67;4.93;;;;;;;8.23;59.70;101932.66;5114314;28;20451;-53
2021/03/28 00:05:28;;;;;;;22.20;4.60;;;;;;;8.83;58.27;101938.50;5117786;28;20452;-50
2021/03/28 00:07:58;;;;;;;18.60;3.57;;;;;;;8.14;60.03;101932.88;5114415;28;20767;-50
2021/03/28 00:10:31;;;;;;;27.17;5.50;;;;;;;8.43;59.47;101936.63;5118103;28;20422;-50
2021/03/28 00:13:04;;;;;;;20.90;3.70;;;;;;;8.01;60.39;101940.53;5114856;28;20450;-51
2021/03/28 00:15:33;;;;;;;15.93;5.30;;;;;;;8.64;58.83;101937.25;5115636;28;20453;-53
2021/03/28 00:18:20;;;;;;;21.43;6.07;;;;;;;8.58;58.53;101941.97;5116468;28;20927;-51
2021/03/28 00:20:47;;;;;;;19.83;4.13;;;;;;;8.49;58.98;101947.31;5117247;28;20756;-50
2021/03/28 00:23:18;;;;;;;13.53;4.03;;;;;;;8.27;59.67;101938.88;5116459;28;20572;-47
2021/03/28 00:25:50;;;;;;;11.17;4.10;;;;;;;8.40;59.38;101938.09;5117390;28;20548;-51
2021/03/28 00:28:24;;;;;;;15.00;4.07;;;;;;;8.43;59.08;101934.03;5114143;28;20475;-51
2021/03/28 00:30:51;;;;;;;18.23;4.80;;;;;;;8.49;58.37;101931.91;5117835;28;20437;-50
2021/03/28 00:33:22;;;;;;;23.27;5.07;;;;;;;8.31;58.94;101943.47;5116055;28;20531;-51
2021/03/28 00:35:53;;;;;;;25.50;4.67;;;;;;;8.26;59.16;101944.81;5117141;28;20429;-47
2021/03/28 00:38:21;;;;;;;33.47;5.83;;;;;;;8.46;58.96;101935.94;5116281;28;20486;-49
2021/03/28 00:41:08;;;;;;;17.33;4.80;;;;;;;8.18;59.10;101947.75;5117726;28;20432;-50
2021/03/28 00:43:42;;;;;;;12.80;3.50;;;;;;;8.23;59.28;101948.06;5113895;28;20509;-49
2021/03/28 00:46:09;;;;;;;13.50;3.73;;;;;;;8.50;58.21;101949.13;5116702;28;20438;-49
2021/03/28 00:48:48;;;;;;;18.57;3.63;;;;;;;8.27;58.55;101944.03;5115881;28;20930;-50
2021/03/28 00:51:19;;;;;;;18.23;4.23;;;;;;;8.30;58.81;101950.28;5114569;28;20504;-50
2021/03/28 00:53:48;;;;;;;13.43;3.27;;;;;;;8.15;58.99;101944.94;5115772;28;20967;-47
2021/03/28 00:56:20;;;;;;;20.30;4.30;;;;;;;8.46;58.36;101947.09;5114352;28;20463;-50
2021/03/28 00:58:56;;;;;;;18.73;3.80;;;;;;;8.17;59.01;101953.69;5115476;28;20854;-48
2021/03/28 01:01:33;;;;;;;9.97;3.33;;;;;;;8.33;58.07;101940.22;5115447;28;20438;-48
2021/03/28 01:04:54;;;;;;;13.33;3.87;;;;;;;8.48;57.63;101950.69;5113279;28;20447;-48
2021/03/28 01:07:30;;;;;;;21.07;4.23;;;;;;;8.24;58.21;101945.63;5031642;28;20435;-51
2021/03/28 01:10:18;;;;;;;7.70;2.23;;;;;;;8.23;58.18;101942.94;5031534;28;20473;-50
2021/03/28 01:13:11;;;;;;;16.97;3.57;;;;;;;7.88;59.03;101941.31;5098057;28;20490;-50
2021/03/28 01:16:17;;;;;;;17.07;5.40;;;;;;;8.01;59.04;101941.44;5114393;28;20938;-50
2021/03/28 01:19:05;;;;;;;13.40;3.27;;;;;;;8.07;58.77;101936.72;5107156;28;20453;-48
2021/03/28 01:21:43;;;;;;;16.83;3.97;;;;;;;8.54;57.64;101944.19;5116318;28;20491;-51
2021/03/28 01:24:20;;;;;;;22.00;3.00;;;;;;;8.24;58.49;101934.44;5115133;28;20499;-52
2021/03/28 01:27:00;;;;;;;13.77;4.27;;;;;;;8.63;57.40;101952.56;5116292;28;20457;-47
2021/03/28 01:29:30;;;;;;;11.33;4.03;;;;;;;8.36;58.22;101940.44;5113331;28;20991;-51
2021/03/28 01:32:01;;;;;;;23.03;4.20;;;;;;;8.64;57.46;101936.34;5114456;28;20463;-51
2021/03/28 01:34:30;;;;;;;20.37;4.53;;;;;;;8.56;57.57;101937.50;5114586;28;20486;-50
2021/03/28 01:37:10;;;;;;;15.03;4.00;;;;;;;8.59;57.60;101932.56;5116128;28;20914;-52
2021/03/28 01:39:43;;;;;;;33.87;4.30;;;;;;;8.41;57.72;101933.03;5112324;28;20507;-48
2021/03/28 01:42:20;;;;;;;14.43;3.03;;;;;;;8.44;57.32;101938.41;5116204;28;20750;-50
2021/03/28 01:44:51;;;;;;;16.57;4.50;;;;;;;8.46;57.48;101925.66;5115282;28;20522;-51
2021/03/28 01:47:26;;;;;;;15.13;4.67;;;;;;;8.21;57.86;101935.09;5112785;28;20435;-49
2021/03/28 01:50:25;;;;;;;19.63;4.27;;;;;;;8.32;57.57;101929.81;5112948;28;20475;-51
2021/03/28 01:53:07;;;;;;;17.20;4.50;;;;;;;8.80;56.31;101942.50;5111572;28;20475;-53
2021/03/28 01:55:39;;;;;;;10.70;3.83;;;;;;;8.64;56.48;101933.75;5113068;28;20494;-51
2021/03/28 01:58:14;;;;;;;15.50;3.77;;;;;;;8.49;56.94;101937.03;5114338;28;20452;-47
2021/03/28 02:00:59;;;;;;;21.93;5.00;;;;;;;8.71;56.56;101932.50;5114345;28;20427;-54
2021/03/28 02:03:31;;;;;;;14.53;5.33;;;;;;;8.90;55.38;101930.41;5113479;28;20494;-53
2021/03/28 02:06:07;;;;;;;19.90;5.33;;;;;;;8.77;56.21;101933.81;5113413;28;20431;-49
2021/03/28 02:08:48;;;;;;;20.50;4.23;;;;;;;8.48;56.71;101929.22;5111850;28;20494;-49
2021/03/28 02:11:46;;;;;;;22.17;4.57;;;;;;;8.78;56.07;101927.88;5112859;28;20463;-52
2021/03/28 02:14:23;;;;;;;15.07;3.77;;;;;;;8.56;56.18;101927.22;5065912;28;20561;-48
2021/03/28 02:16:56;;;;;;;13.63;4.63;;;;;;;8.99;54.99;101914.69;5115569;28;20453;-48
2021/03/28 02:19:24;;;;;;;20.60;5.07;;;;;;;8.38;57.00;101927.69;5113993;28;20473;-47
2021/03/28 02:21:59;;;;;;;13.63;3.27;;;;;;;8.58;56.31;101928.19;5115754;28;20454;-49
2021/03/28 02:24:42;;;;;;;24.90;5.70;;;;;;;8.78;55.70;101934.72;5113461;28;20457;-51
2021/03/28 02:27:15;;;;;;;14.00;4.70;;;;;;;8.61;56.01;101931.88;5114875;28;20481;-48
2021/03/28 02:29:59;;;;;;;22.00;4.70;;;;;;;8.69;56.14;101924.69;5113627;28;20440;-48
2021/03/28 02:32:36;;;;;;;21.20;4.93;;;;;;;8.60;56.44;101935.22;5113067;28;20544;-49
2021/03/28 02:35:10;;;;;;;16.73;4.23;;;;;;;8.80;55.58;101932.22;5113791;28;20514;-49
2021/03/28 02:37:45;;;;;;;14.53;5.33;;;;;;;8.78;56.01;101934.72;5111231;28;20453;-51
2021/03/28 02:40:16;;;;;;;19.83;4.70;;;;;;;8.77;55.87;101933.81;5115313;28;20446;-48
2021/03/28 02:42:55;;;;;;;19.83;4.63;;;;;;;9.00;55.17;101931.91;5114164;28;20467;-50
2021/03/28 02:45:24;;;;;;;13.67;4.20;;;;;;;8.83;55.15;101930.78;5113258;28;20551;-47
2021/03/28 02:48:26;;;;;;;17.97;4.77;;;;;;;8.51;56.01;101920.06;5114286;28;20452;-50
2021/03/28 02:51:15;;;;;;;19.47;5.67;;;;;;;8.69;55.94;101923.78;5112630;28;20487;-50
2021/03/28 02:54:03;;;;;;;29.07;5.27;;;;;;;8.57;55.43;101922.16;5111760;28;20922;-47
2021/03/28 02:57:12;;;;;;;19.10;4.70;;;;;;;8.53;56.02;101921.84;5114672;28;20544;-50
2021/03/28 02:59:59;;;;;;;23.97;4.83;;;;;;;9.10;54.12;101917.97;5090713;28;20589;-48
2021/03/28 03:02:40;;;;;;;16.17;4.50;;;;;;;8.64;55.50;101923.47;5114454;28;20519;-49
2021/03/28 03:05:21;;;;;;;13.20;3.70;;;;;;;8.42;55.93;101924.53;5115361;28;20547;-49
2021/03/28 03:08:11;;;;;;;22.83;3.40;;;;;;;8.40;56.33;101920.97;5115167;28;20466;-50
2021/03/28 03:10:52;;;;;;;13.83;3.97;;;;;;;8.57;55.41;101929.00;5112369;28;20431;-51
2021/03/28 03:13:32;;;;;;;15.30;3.70;;;;;;;8.39;55.71;101926.88;5114256;28;20879;-49
2021/03/28 03:16:01;;;;;;;9.57;3.43;;;;;;;8.11;56.25;101917.25;5113527;28;20424;-48
2021/03/28 03:19:05;;;;;;;15.10;4.00;;;;;;;8.10;56.30;101920.59;5113134;28;20925;-49
2021/03/28 03:22:08;;;;;;;15.33;3.23;;;;;;;8.09;56.57;101923.94;5115195;28;20459;-47
2021/03/28 03:25:08;;;;;;;15.20;3.63;;;;;;;8.20;56.25;101917.88;5113994;28;20923;-47
2021/03/28 03:28:11;;;;;;;24.37;4.70;;;;;;;8.58;55.34;101928.19;5114072;28;20492;-53
2021/03/28 03:30:55;;;;;;;22.57;4.67;;;;;;;8.53;54.82;101926.97;5115009;28;20905;-47
2021/03/28 03:33:59;;;;;;;13.10;2.87;;;;;;;8.38;55.88;101919.97;5114171;28;20455;-48
2021/03/28 03:36:48;;;;;;;18.37;5.40;;;;;;;8.30;55.60;101922.00;5115366;28;20837;-48
2021/03/28 03:39:23;;;;;;;20.33;3.97;;;;;;;8.31;55.34;101928.03;5113884;28;20463;-52
2021/03/28 03:42:15;;;;;;;17.43;3.93;;;;;;;8.34;55.19;101933.38;5115469;28;20431;-49
2021/03/28 03:45:14;;;;;;;16.73;3.50;;;;;;;8.11;56.25;101927.53;5100319;28;20548;-49
2021/03/28 03:47:45;;;;;;;14.70;3.73;;;;;;;8.02;56.39;101942.28;5114009;28;20788;-50
2021/03/28 03:50:15;;;;;;;7.47;2.97;;;;;;;8.03;56.28;101936.38;5117562;28;20450;-49
2021/03/28 03:52:57;;;;;;;7.90;2.80;;;;;;;8.06;55.71;101939.16;5117833;28;20476;-50
2021/03/28 03:55:31;;;;;;;8.23;1.50;;;;;;;8.27;55.44;101932.09;5118342;28;20549;-47
2021/03/28 03:58:09;;;;;;;12.07;3.47;;;;;;;8.52;54.86;101926.09;5117010;28;20534;-48
2021/03/28 04:00:41;;;;;;;20.60;3.60;;;;;;;8.34;55.03;101928.25;5118890;28;20771;-47
2021/03/28 04:03:12;;;;;;;5.90;2.30;;;;;;;8.07;55.54;101934.16;5117974;28;20455;-48
2021/03/28 04:06:05;;;;;;;15.60;3.63;;;;;;;8.40;55.04;101918.38;5118321;28;20416;-51
2021/03/28 04:08:44;;;;;;;15.37;2.90;;;;;;;8.41;54.51;101917.59;5116475;28;20454;-49
2021/03/28 04:11:28;;;;;;;6.70;2.70;;;;;;;8.15;55.31;101921.81;5118743;28;20431;-48
2021/03/28 04:14:08;;;;;;;6.70;2.80;;;;;;;8.10;55.50;101910.31;5116699;28;20491;-47
2021/03/28 04:16:43;;;;;;;15.57;3.73;;;;;;;8.20;54.75;101927.31;5118647;28;20440;-49
2021/03/28 04:19:29;;;;;;;13.40;2.27;;;;;;;8.20;54.81;101922.16;5117167;28;20473;-51
2021/03/28 04:22:07;;;;;;;6.27;2.73;;;;;;;8.18;54.92;101914.34;5118516;28;20767;-50
2021/03/28 04:24:40;;;;;;;5.87;1.60;;;;;;;7.81;55.58;101904.88;5116288;28;20457;-47
2021/03/28 04:27:24;;;;;;;16.70;3.57;;;;;;;8.35;54.49;101912.03;5118483;28;20518;-48
2021/03/28 04:29:51;;;;;;;8.03;2.27;;;;;;;8.33;54.55;101905.91;5117530;28;20453;-49
2021/03/28 04:32:27;;;;;;;9.03;3.10;;;;;;;8.54;54.08;101903.03;5116973;28;20420;-52
2021/03/28 04:35:05;;;;;;;11.50;3.07;;;;;;;8.63;53.81;101906.25;5117720;28;20427;-51
2021/03/28 04:37:39;;;;;;;9.70;2.67;;;;;;;8.44;54.57;101899.81;5117055;28;20544;-51
2021/03/28 04:40:31;;;;;;;18.60;4.20;;;;;;;8.32;54.71;101909.25;5118038;28;20468;-49
2021/03/28 04:43:21;;;;;;;8.07;3.07;;;;;;;8.31;54.77;101904.91;5111847;28;20571;-53
2021/03/28 04:46:03;;;;;;;12.40;2.63;;;;;;;8.29;54.21;101899.66;5117737;28;20431;-51
2021/03/28 04:48:52;;;;;;;13.80;3.30;;;;;;;8.35;54.56;101899.16;5116610;28;20452;-47
2021/03/28 04:51:27;;;;;;;24.57;3.80;;;;;;;8.44;54.62;101902.38;5117440;28;20766;-50
2021/03/28 04:54:23;;;;;;;5.67;1.70;;;;;;;8.50;54.63;101892.53;5116552;28;20443;-49
2021/03/28 04:57:10;;;;;;;10.20;3.13;;;;;;;8.54;54.23;101893.66;5117816;28;20438;-49
2021/03/28 05:00:21;;;;;;;6.87;2.20;;;;;;;8.48;54.65;101891.53;5116718;28;20485;-49
2021/03/28 05:03:14;;;;;;;7.63;2.50;;;;;;;8.53;54.33;101885.81;5116065;28;20440;-48
2021/03/28 05:05:53;;;;;;;16.30;4.00;;;;;;;8.54;54.28;101892.75;5117345;28;21238;-50
2021/03/28 05:08:41;;;;;;;20.40;3.77;;;;;;;8.51;54.26;101890.81;5115746;28;20460;-50
2021/03/28 05:11:27;;;;;;;10.20;2.80;;;;;;;8.74;53.93;101886.38;5117604;28;20727;-52
2021/03/28 05:14:33;;;;;;;18.67;3.53;;;;;;;8.96;53.23;101874.97;5116118;28;20462;-50
2021/03/28 05:17:15;;;;;;;18.60;3.50;;;;;;;8.68;53.76;101888.56;5114004;28;20464;-47
2021/03/28 05:20:10;;;;;;;14.50;4.07;;;;;;;8.60;54.09;101882.88;5113839;28;20493;-53
2021/03/28 05:23:04;;;;;;;16.80;4.23;;;;;;;8.81;53.28;101883.44;5104528;28;21055;-51
2021/03/28 05:25:47;;;;;;;14.77;3.80;;;;;;;8.98;53.17;101875.97;5116564;28;20460;-47
2021/03/28 05:28:50;;;;;;;9.87;2.67;;;;;;;8.72;53.65;101873.41;5115771;28;20458;-48
2021/03/28 05:31:47;;;;;;;9.57;3.30;;;;;;;8.85;53.14;101863.94;5116847;28;20442;-49
2021/03/28 05:34:55;;;;;;;6.27;2.40;;;;;;;8.22;54.81;101875.16;5115636;28;20777;-49
2021/03/28 05:37:40;;;;;;;9.83;4.07;;;;;;;9.13;52.31;101870.94;5115276;28;20526;-49
2021/03/28 05:40:26;;;;;;;20.90;4.90;;;;;;;9.00;53.12;101864.97;5116869;28;20584;-50
2021/03/28 05:43:30;;;;;;;21.03;4.37;;;;;;;8.83;52.93;101865.53;5115596;28;20492;-46
2021/03/28 05:46:07;;;;;;;14.00;3.17;;;;;;;8.89;52.94;101861.69;5116542;28;20466;-50
2021/03/28 05:48:49;;;;;;;11.23;2.77;;;;;;;8.77;53.79;101866.91;5115533;28;20860;-50
2021/03/28 05:51:30;;;;;;;9.80;3.57;;;;;;;8.99;52.57;101863.19;5116744;28;20467;-48
2021/03/28 05:54:34;;;;;;;12.47;3.83;;;;;;;8.85;53.11;101858.78;5114901;28;20756;-51
2021/03/28 05:57:49;;;;;;;9.83;3.07;;;;;;;8.81;53.02;101846.53;5116146;28;20892;-47
2021/03/28 06:00:51;;;;;;;11.37;3.87;;;;;;;9.26;51.93;101858.06;5115713;28;20450;-51
2021/03/28 06:03:39;;;;;;;17.90;4.43;;;;;;;9.05;52.31;101863.59;5032395;28;20560;-50
2021/03/28 06:06:31;;;;;;;14.43;3.87;;;;;;;9.03;52.60;101875.47;5112927;28;20460;-48
2021/03/28 06:09:27;;;;;;;16.73;3.10;;;;;;;9.15;52.14;101875.38;5115491;28;20560;-51
2021/03/28 06:12:24;;;;;;;18.13;3.17;;;;;;;9.54;51.63;101870.13;5115918;28;20427;-53
2021/03/28 06:15:22;;;;;;;9.73;3.10;;;;;;;8.99;52.65;101876.06;5098425;28;20469;-47
2021/03/28 06:18:34;;;;;;;10.33;3.03;;;;;;;8.84;53.38;101898.19;5114725;28;20911;-47
2021/03/28 06:21:14;;;;;;;14.80;3.50;;;;;;;9.90;50.92;101884.34;5053712;28;20422;-49
2021/03/28 06:23:57;;;;;;;9.53;2.73;;;;;;;9.16;52.36;101896.88;5105863;28;20477;-51
2021/03/28 06:26:55;;;;;;;15.53;3.10;;;;;;;9.44;51.48;101898.69;5116288;28;20438;-50
2021/03/28 06:30:04;;;;;;;6.23;2.03;;;;;;;9.23;51.94;101903.31;5114196;28;20930;-49
2021/03/28 06:33:09;;;;;;;15.23;3.47;;;;;;;9.14;52.31;101893.31;5114833;28;20453;-50
2021/03/28 06:36:07;;;;;;;10.80;4.03;;;;;;;9.76;51.02;101886.97;5115187;28;20861;-51
2021/03/28 06:39:10;;;;;;;12.57;3.80;;;;;;;9.39;51.92;101887.19;5114779;28;20447;-49
2021/03/28 06:41:46;;;;;;;9.90;1.87;;;;;;;9.11;52.16;101883.69;5115972;28;20456;-50
2021/03/28 06:44:45;;;;;;;10.50;3.23;;;;;;;9.44;52.13;101888.38;5114506;28;20485;-51
2021/03/28 06:47:34;;;;;;;5.93;2.10;;;;;;;9.07;52.70;101891.13;5114696;28;20428;-52
2021/03/28 06:50:29;;;;;;;10.43;3.70;;;;;;;9.30;52.27;101882.31;5115468;28;20488;-51
2021/03/28 06:53:04;;;;;;;11.20;2.10;;;;;;;9.17;52.70;101881.53;5114455;28;20564;-52
2021/03/28 06:55:36;;;;;;;8.33;2.80;;;;;;;9.11;52.92;101887.94;5115376;28;20453;-51
2021/03/28 06:58:44;;;;;;;11.97;3.60;;;;;;;9.36;52.12;101881.81;5114496;28;20986;-48
2021/03/28 07:01:53;;;;;;;10.13;3.20;;;;;;;9.41;51.87;101864.97;5115726;28;20456;-48
2021/03/28 07:04:42;;;;;;;6.67;3.17;;;;;;;9.34;52.50;101870.53;5114302;28;20495;-50
2021/03/28 07:07:22;;;;;;;13.03;4.53;;;;;;;9.78;51.88;101863.84;5115507;28;20449;-48
2021/03/28 07:10:11;;;;;;;18.97;5.30;;;;;;;9.89;51.29;101877.41;5114831;28;20744;-51
2021/03/28 07:13:03;;;;;;;15.03;4.20;;;;;;;9.92;51.43;101877.59;5114401;28;20464;-51
2021/03/28 07:15:47;;;;;;;7.87;3.23;;;;;;;9.84;51.62;101884.84;5115420;28;20419;-48
2021/03/28 07:18:39;;;;;;;9.50;2.27;;;;;;;9.98;51.47;101883.13;5111323;28;20468;-48
2021/03/28 07:21:12;;;;;;;7.23;2.33;;;;;;;9.36;52.62;101876.66;5115609;28;20453;-49
2021/03/28 07:24:25;;;;;;;9.47;2.70;;;;;;;9.50;52.36;101868.16;5114554;28;20484;-48
2021/03/28 07:27:03;;;;;;;19.93;5.60;;;;;;;10.10;51.73;101871.00;5118698;28;20464;-51
2021/03/28 07:29:55;;;;;;;12.87;3.83;;;;;;;10.12;51.21;101868.53;5117790;28;20537;-49
2021/03/28 07:32:34;;;;;;;13.57;4.10;;;;;;;10.01;51.47;101875.59;5090695;28;20458;-51
2021/03/28 07:35:34;;;;;;;13.93;4.60;;;;;;;10.09;51.40;101882.13;5098527;28;20457;-49
2021/03/28 07:38:51;;;;;;;6.93;3.00;;;;;;;9.99;51.99;101878.09;5097532;28;20469;-48
2021/03/28 07:41:39;;;;;;;14.53;3.93;;;;;;;10.20;51.67;101884.47;5098901;28;20763;-50
2021/03/28 07:44:54;;;;;;;11.70;3.30;;;;;;;10.32;51.27;101872.34;5096806;28;20954;-50
2021/03/28 07:47:52;;;;;;;7.20;2.53;;;;;;;10.09;51.63;101870.91;5116883;28;20471;-47
2021/03/28 07:50:50;;;;;;;7.77;2.63;;;;;;;10.18;51.61;101870.56;5111721;28;20536;-51
2021/03/28 07:53:49;;;;;;;9.70;3.47;;;;;;;10.28;51.99;101872.94;5101057;28;20480;-50
2021/03/28 07:56:44;;;;;;;10.50;3.13;;;;;;;10.61;50.88;101873.19;5104143;28;20488;-50
2021/03/28 07:59:39;;;;;;;9.37;3.77;;;;;;;10.64;51.01;101867.34;5117002;28;20481;-50
2021/03/28 08:02:23;;;;;;;7.90;2.60;;;;;;;11.01;50.66;101859.16;5118337;28;20777;-50
2021/03/28 08:05:09;;;;;;;4.40;1.70;;;;;;;10.92;50.17;101864.69;5116044;28;20518;-49
2021/03/28 08:07:45;;;;;;;18.50;5.87;;;;;;;11.59;49.68;101850.31;5117383;28;20750;-51
2021/03/28 08:10:38;;;;;;;11.30;3.73;;;;;;;11.52;50.14;101847.31;5102708;28;20476;-53
2021/03/28 08:13:41;;;;;;;20.90;7.87;;;;;;;11.27;49.92;101853.72;5096232;28;20474;-47
2021/03/28 08:16:14;;;;;;;12.20;4.10;;;;;;;11.35;49.90;101855.91;5098039;28;20742;-50
2021/03/28 08:18:56;;;;;;;10.33;3.43;;;;;;;11.26;49.79;101855.41;5096347;28;20454;-48
2021/03/28 08:21:33;;;;;;;23.10;6.40;;;;;;;11.33;50.37;101862.69;5097946;28;20489;-50
2021/03/28 08:24:17;;;;;;;23.00;4.57;;;;;;;11.28;50.30;101858.06;5095543;28;20481;-53
2021/03/28 08:27:23;;;;;;;15.23;2.90;;;;;;;12.14;49.05;101855.84;5109316;28;20427;-52
2021/03/28 08:30:03;;;;;;;16.00;3.10;;;;;;;11.40;50.13;101853.59;5117462;28;20453;-50
2021/03/28 08:32:53;;;;;;;12.70;4.47;;;;;;;11.79;48.89;101841.88;5116727;28;20457;-46
2021/03/28 08:35:27;;;;;;;12.40;3.70;;;;;;;12.11;48.90;101846.22;5062013;28;20460;-48
2021/03/28 08:38:08;;;;;;;9.43;4.23;;;;;;;11.61;49.83;101840.97;5115661;28;20477;-50
2021/03/28 08:40:57;;;;;;;16.63;2.53;;;;;;;11.17;51.05;101850.59;5117837;28;20472;-48
2021/03/28 08:43:49;;;;;;;5.70;2.30;;;;;;;11.69;50.18;101851.72;5115345;28;20469;-48
2021/03/28 08:46:27;;;;;;;8.00;2.97;;;;;;;12.20;49.61;101845.81;5117587;28;20536;-51
2021/03/28 08:49:00;;;;;;;8.73;2.50;;;;;;;11.88;49.50;101850.13;5116053;28;20477;-51
2021/03/28 08:51:52;;;;;;;9.00;2.90;;;;;;;12.31;49.21;101850.66;5117773;28;20469;-52
2021/03/28 08:54:20;;;;;;;18.73;4.67;;;;;;;12.85;47.93;101839.53;5109633;28;20477;-49
2021/03/28 08:56:56;;;;;;;12.47;4.20;;;;;;;12.47;48.87;101842.91;5117260;28;20467;-50
2021/03/28 08:59:37;;;;;;;7.47;2.73;;;;;;;12.86;47.99;101831.00;5115328;28;20580;-50
2021/03/28 09:02:17;;;;;;;10.93;3.33;;;;;;;12.82;48.22;101843.78;5097157;28;20856;-49
2021/03/28 09:04:52;;;;;;;7.60;2.13;;;;;;;12.80;48.48;101835.03;5096342;28;20465;-52
2021/03/28 09:07:31;;;;;;;8.50;2.37;;;;;;;12.68;48.91;101839.63;5095704;28;20495;-48
2021/03/28 09:10:25;;;;;;;11.20;3.70;;;;;;;12.54;49.47;101836.31;5096683;28;20565;-48
2021/03/28 09:13:04;;;;;;;13.20;3.00;;;;;;;13.00;48.90;101842.91;5095543;28;20489;-47
2021/03/28 09:15:44;;;;;;;6.10;2.10;;;;;;;12.77;48.40;101841.78;5095985;28;20457;-52
2021/03/28 09:18:21;;;;;;;10.17;3.53;;;;;;;13.70;46.92;101845.34;5094687;28;20508;-50
2021/03/28 09:20:54;;;;;;;15.77;4.13;;;;;;;13.47;47.54;101839.97;5096905;28;20581;-49
2021/03/28 09:23:44;;;;;;;8.17;2.90;;;;;;;13.84;46.85;101828.69;5095316;28;20558;-52
2021/03/28 09:26:23;;;;;;;3.20;1.37;;;;;;;12.95;48.58;101826.25;5096269;28;20985;-48
2021/03/28 09:29:00;;;;;;;9.37;2.50;;;;;;;13.48;48.13;101810.63;5110300;28;20480;-50
2021/03/28 09:31:33;;;;;;;7.93;2.70;;;;;;;13.57;47.67;101812.75;5116434;28;20475;-50
2021/03/28 09:34:17;;;;;;;10.77;2.37;;;;;;;13.52;47.70;101817.75;5111355;28;20966;-48
2021/03/28 09:36:53;;;;;;;12.90;3.70;;;;;;;14.00;47.00;101813.84;5116874;28;20542;-51
2021/03/28 09:39:49;;;;;;;8.40;2.90;;;;;;;14.06;46.91;101815.81;5114800;28;20824;-52
2021/03/28 09:43:06;;;;;;;8.30;2.70;;;;;;;13.66;47.44;101820.97;5115602;28;20456;-50
2021/03/28 09:45:46;;;;;;;6.80;2.70;;;;;;;13.80;47.08;101819.03;5013873;28;20460;-51
2021/03/28 09:48:43;;;;;;;3.30;1.13;;;;;;;13.84;47.11;101810.53;5099837;28;20480;-48
2021/03/28 09:51:23;;;;;;;5.20;1.67;;;;;;;13.85;46.55;101811.44;5116620;28;20548;-49
2021/03/28 09:54:09;;;;;;;5.83;1.77;;;;;;;14.13;46.32;101818.75;5113944;28;20487;-50
2021/03/28 09:57:04;;;;;;;12.43;3.00;;;;;;;14.97;44.77;101801.47;5116499;28;20460;-48
2021/03/28 10:00:04;;;;;;;6.63;1.70;;;;;;;15.07;44.73;101794.06;5114705;28;20515;-47
2021/03/28 10:02:50;;;;;;;5.30;1.77;;;;;;;14.69;45.18;101795.16;5115411;28;24783;-51
2021/03/28 10:05:24;;;;;;;9.23;2.40;;;;;;;14.68;45.21;101805.47;5116114;28;20459;-49
2021/03/28 10:07:59;;;;;;;7.30;1.63;;;;;;;14.95;44.50;101803.16;5114814;28;20517;-50
2021/03/28 10:10:54;;;;;;;5.20;2.63;;;;;;;13.83;46.83;101808.78;5115734;28;20459;-52
2021/03/28 10:13:32;;;;;;;5.70;1.87;;;;;;;13.69;47.14;101800.34;5112329;28;20473;-49
2021/03/28 10:16:02;;;;;;;7.10;1.70;;;;;;;13.54;47.17;101804.84;5115878;28;20483;-52
2021/03/28 10:18:46;;;;;;;8.60;2.43;;;;;;;13.64;47.43;101801.84;5114554;28;20484;-50
2021/03/28 10:21:31;;;;;;;7.90;1.60;;;;;;;13.63;46.89;101806.16;5116119;28;20488;-51
2021/03/28 10:24:10;;;;;;;5.60;1.93;;;;;;;13.37;47.51;101808.41;5114343;28;20533;-50
2021/03/28 10:26:48;;;;;;;4.00;1.67;;;;;;;13.91;46.87;101811.72;5115932;28;20460;-50
2021/03/28 10:29:41;;;;;;;3.47;1.50;;;;;;;13.55;47.31;101810.13;5114177;28;20478;-50
2021/03/28 10:32:18;;;;;;;5.40;1.50;;;;;;;13.52;47.17;101806.50;5105317;28;20487;-48
2021/03/28 10:34:59;;;;;;;8.47;1.80;;;;;;;13.45;47.20;101794.91;5115258;28;20456;-47
2021/03/28 10:37:38;;;;;;;4.27;1.90;;;;;;;13.63;47.17;101811.34;5114427;28;20460;-48
2021/03/28 10:40:19;;;;;;;9.03;3.00;;;;;;;13.68;46.91;101802.91;5115771;28;20484;-51
2021/03/28 10:42:49;;;;;;;4.70;1.40;;;;;;;13.66;47.25;101799.34;5114262;28;20471;-47
2021/03/28 10:45:23;;;;;;;7.77;2.10;;;;;;;13.77;46.78;101805.91;5115118;28;20491;-50
2021/03/28 10:48:32;;;;;;;10.43;1.67;;;;;;;13.44;47.54;101798.31;5113781;28;20552;-52
2021/03/28 10:51:43;;;;;;;3.90;1.60;;;;;;;13.45;47.35;101800.09;5090472;28;20886;-51
2021/03/28 10:54:51;;;;;;;11.53;2.50;;;;;;;14.54;45.43;101795.38;5113990;28;20485;-54
2021/03/28 10:57:59;;;;;;;12.47;1.93;;;;;;;14.02;46.72;101789.75;5087009;28;20465;-52
2021/03/28 11:00:56;;;;;;;4.23;1.30;;;;;;;14.00;47.14;101782.72;5108235;28;20803;-50
2021/03/28 11:04:05;;;;;;;5.73;2.23;;;;;;;14.04;46.56;101787.19;5098425;28;20500;-52
2021/03/28 11:06:47;;;;;;;7.50;1.97;;;;;;;14.20;47.71;101757.59;5089410;28;20450;-51
2021/03/28 11:10:05;;;;;;;10.07;2.90;;;;;;;14.34;46.82;101775.47;5097911;28;20778;-51
2021/03/28 11:12:58;;;;;;;7.80;2.60;;;;;;;14.31;46.97;101781.44;5091509;28;20568;-53
2021/03/28 11:15:43;;;;;;;10.63;1.50;;;;;;;13.86;47.32;101780.41;5099006;28;20453;-49
2021/03/28 11:18:46;;;;;;;4.53;1.37;;;;;;;14.23;46.68;101777.59;5101346;28;20775;-49
2021/03/28 11:21:28;;;;;;;8.97;2.80;;;;;;;14.57;46.32;101774.72;5054605;28;20481;-48
2021/03/28 11:24:16;;;;;;;9.20;3.30;;;;;;;15.15;45.37;101764.06;5097232;28;20488;-55
2021/03/28 11:27:31;;;;;;;11.33;2.90;;;;;;;15.27;44.96;101773.16;5099040;28;20758;-49
2021/03/28 11:30:19;;;;;;;27.87;10.70;;;;;;;15.10;46.68;101765.59;5098558;28;20475;-51
2021/03/28 11:33:01;;;;;;;48.00;14.53;;;;;;;14.91;47.68;101767.47;5097017;28;20476;-49
2021/03/28 11:35:31;;;;;;;37.60;15.27;;;;;;;14.37;46.90;101766.13;5112389;28;20513;-49
2021/03/28 11:38:28;;;;;;;6.90;2.50;;;;;;;14.61;45.40;101759.28;5108980;28;20481;-51
2021/03/28 11:41:24;;;;;;;4.67;1.60;;;;;;;13.95;47.00;101766.03;5098043;28;20564;-49
2021/03/28 11:43:53;;;;;;;7.00;2.10;;;;;;;14.40;46.61;101763.66;5097267;28;20481;-50
2021/03/28 11:46:26;;;;;;;9.60;2.30;;;;;;;14.68;45.99;101762.19;5098322;28;20465;-50
2021/03/28 11:49:09;;;;;;;4.97;2.03;;;;;;;14.64;46.04;101762.91;5096941;28;20976;-48
2021/03/28 11:52:09;;;;;;;13.30;2.90;;;;;;;14.84;45.78;101766.34;5098518;28;20460;-48
2021/03/28 11:54:37;;;;;;;6.70;2.50;;;;;;;14.48;46.28;101770.88;5097562;28;20464;-49
2021/03/28 11:57:29;;;;;;;14.03;3.40;;;;;;;14.67;45.58;101762.13;5097034;28;20564;-54
2021/03/28 11:59:58;;;;;;;8.87;1.80;;;;;;;14.67;45.97;101754.34;5100863;28;20788;-49
2021/03/28 12:02:27;;;;;;;16.23;3.13;;;;;;;15.04;45.36;101752.34;5117371;28;20460;-50
2021/03/28 12:05:32;;;;;;;15.87;2.93;;;;;;;15.24;44.96;101750.53;5118181;28;20592;-49
2021/03/28 12:08:05;;;;;;;6.53;2.07;;;;;;;15.14;44.95;101746.69;5117280;28;20477;-48
2021/03/28 12:10:34;;;;;;;5.13;1.53;;;;;;;14.97;45.71;101746.91;5117805;28;20878;-49
2021/03/28 12:13:39;;;;;;;3.07;1.50;;;;;;;14.57;46.32;101750.50;5117118;28;20748;-52
2021/03/28 12:16:07;;;;;;;3.17;1.03;;;;;;;14.84;46.56;101742.06;5117759;28;20927;-52
2021/03/28 12:18:41;;;;;;;19.40;4.30;;;;;;;14.95;46.12;101743.38;5116591;28;20556;-49
2021/03/28 12:21:41;;;;;;;13.90;2.43;;;;;;;14.99;46.93;101750.44;5118380;28;20567;-51
2021/03/28 12:24:09;;;;;;;7.00;2.40;;;;;;;14.49;47.98;101741.47;5116597;28;20559;-50
2021/03/28 12:27:04;;;;;;;11.50;2.80;;;;;;;14.50;49.54;101743.28;5118314;28;20484;-51
2021/03/28 12:29:39;;;;;;;4.33;1.70;;;;;;;14.57;49.16;101745.28;5058138;28;20490;-51
2021/03/28 12:32:49;;;;;;;11.33;2.47;;;;;;;14.72;48.33;101745.91;5117367;28;20448;-51
2021/03/28 12:35:34;;;;;;;8.20;1.90;;;;;;;14.45;49.38;101736.16;5116952;28;20539;-55
2021/03/28 12:38:23;;;;;;;7.43;2.37;;;;;;;14.84;49.78;101748.16;5115011;28;20545;-51
2021/03/28 12:41:11;;;;;;;6.53;1.97;;;;;;;14.66;50.71;101748.25;5115524;28;20864;-48
2021/03/28 12:43:40;;;;;;;3.63;1.60;;;;;;;14.42;50.56;101749.00;5110712;28;20576;-52
2021/03/28 12:46:37;;;;;;;5.37;1.90;;;;;;;14.20;50.69;101751.53;5106648;28;20471;-51